Time;durP1;ratioP1;P1;durP2;ratioP2;P2;SDS_P1;SDS_P2;PMS_P1;PMS_P2;Temp;Humidity;BMP_temperature;BMP_pressure;BME280_temperature;BME280_humidity;BME280_pressure;Samples;Min_cycle;Max_cycle;Signal;HPM_P1;HPM_P2
2022/02/12 00:01:53;;;;;;;;;81.75;65.00;;;;;4.85;64.02;103169.56;5009371;28;47022;-89
2022/02/12 00:04:18;;;;;;;;;77.25;61.50;;;;;4.85;63.80;103169.56;5022672;28;45311;-91
2022/02/12 00:06:44;;;;;;;;;80.25;61.50;;;;;4.84;63.76;103168.66;5032609;28;45279;-90
2022/02/12 00:09:09;;;;;;;;;78.25;60.50;;;;;4.84;64.19;103170.38;5014582;28;46079;-90
2022/02/12 00:11:35;;;;;;;;;77.50;58.25;;;;;4.83;63.99;103166.03;5038872;28;45590;-90
2022/02/12 00:14:00;;;;;;;;;69.25;54.25;;;;;4.83;63.74;103160.81;5040402;28;45844;-89
2022/02/12 00:16:25;;;;;;;;;67.50;52.25;;;;;4.86;63.67;103166.13;5019519;28;45207;-90
2022/02/12 00:18:51;;;;;;;;;58.50;46.25;;;;;4.83;63.56;103155.59;5032376;28;45464;-89
2022/02/12 00:21:16;;;;;;;;;57.50;46.25;;;;;4.84;63.80;103152.13;5036379;28;46297;-90
2022/02/12 00:23:41;;;;;;;;;56.00;45.25;;;;;4.85;63.71;103143.50;5042237;28;45435;-85
2022/02/12 00:26:07;;;;;;;;;51.75;44.25;;;;;4.87;63.87;103146.13;5041818;28;45238;-86
2022/02/12 00:28:32;;;;;;;;;53.75;42.00;;;;;4.89;63.64;103140.13;5038806;28;47444;-85
2022/02/12 00:30:57;;;;;;;;;50.50;42.50;;;;;4.89;63.77;103147.94;5035232;28;45288;-85
2022/02/12 00:33:23;;;;;;;;;44.50;37.50;;;;;4.91;63.72;103145.41;5041309;28;45354;-86
2022/02/12 00:35:48;;;;;;;;;44.25;38.50;;;;;4.94;64.01;103141.16;5023855;28;45662;-87
2022/02/12 00:38:13;;;;;;;;;46.25;36.00;;;;;4.95;64.16;103131.63;5037401;28;45226;-85
2022/02/12 00:40:39;;;;;;;;;41.25;36.75;;;;;4.95;63.53;103140.34;5041603;28;45349;-85
2022/02/12 00:43:04;;;;;;;;;38.25;35.25;;;;;4.97;63.32;103132.53;5038764;28;45249;-85
2022/02/12 00:45:30;;;;;;;;;42.75;35.75;;;;;5.00;63.29;103137.84;5038636;28;45217;-85
2022/02/12 00:47:55;;;;;;;;;42.25;37.00;;;;;5.00;63.25;103129.16;5031528;28;45240;-85
2022/02/12 00:50:20;;;;;;;;;48.75;39.50;;;;;5.02;63.60;103128.34;5040803;28;45300;-85
2022/02/12 00:52:46;;;;;;;;;46.00;37.25;;;;;5.05;63.51;103132.78;5030602;28;45317;-86
2022/02/12 00:55:11;;;;;;;;;51.00;39.75;;;;;5.05;63.54;103130.16;5041484;28;45250;-88
2022/02/12 00:57:37;;;;;;;;;45.75;39.00;;;;;5.02;63.15;103117.94;5041635;28;45887;-87
2022/02/12 01:00:04;;;;;;;;;48.75;38.25;;;;;5.04;62.87;103123.16;5040718;28;46364;-83
2022/02/12 01:02:30;;;;;;;;;49.50;41.75;;;;;5.03;63.16;103118.81;5034341;28;45802;-84
2022/02/12 01:04:55;;;;;;;;;50.75;41.50;;;;;5.03;63.10;103119.72;5039590;28;45344;-84
2022/02/12 01:07:21;;;;;;;;;45.00;36.00;;;;;5.02;63.51;103114.44;5037305;28;45390;-86
2022/02/12 01:09:46;;;;;;;;;46.50;38.25;;;;;5.03;63.36;103111.88;5040591;28;46123;-87
2022/02/12 01:12:11;;;;;;;;;40.75;37.75;;;;;5.03;63.49;103108.38;5042882;28;45272;-87
2022/02/12 01:14:37;;;;;;;;;44.25;38.25;;;;;5.03;63.17;103105.78;5040087;28;45266;-87
2022/02/12 01:17:02;;;;;;;;;53.50;41.00;;;;;5.02;63.24;103109.22;5036283;28;45461;-86
2022/02/12 01:19:28;;;;;;;;;39.75;34.50;;;;;5.03;63.31;103096.25;5035308;28;46324;-87
2022/02/12 01:21:53;;;;;;;;;42.50;34.50;;;;;5.01;63.60;103091.81;5030114;28;45260;-86
2022/02/12 01:24:18;;;;;;;;;40.75;34.50;;;;;4.99;63.32;103086.56;5031176;28;45193;-86
2022/02/12 01:26:44;;;;;;;;;40.25;36.75;;;;;5.01;63.36;103089.22;5022551;28;45815;-86
2022/02/12 01:29:10;;;;;;;;;40.50;36.00;;;;;5.00;63.29;103090.03;5040110;28;45230;-83
2022/02/12 01:31:35;;;;;;;;;37.50;34.75;;;;;4.98;63.45;103081.31;5040877;28;45251;-83
2022/02/12 01:34:00;;;;;;;;;37.50;33.50;;;;;4.98;63.23;103071.78;5040151;28;45233;-82
2022/02/12 01:36:27;;;;;;;;;41.25;36.00;;;;;4.98;63.54;103082.19;5040520;28;45284;-82
2022/02/12 01:38:52;;;;;;;;;41.50;35.75;;;;;4.97;63.34;103075.19;5040300;28;46326;-81
2022/02/12 01:41:18;;;;;;;;;37.50;33.25;;;;;4.93;63.38;103069.03;5040882;28;45371;-82
2022/02/12 01:43:43;;;;;;;;;38.00;33.25;;;;;4.97;63.08;103070.00;5040464;28;45360;-82
2022/02/12 01:46:09;;;;;;;;;38.00;32.75;;;;;4.97;63.56;103077.81;5038906;28;45523;-82
2022/02/12 01:48:34;;;;;;;;;38.50;31.75;;;;;4.99;63.42;103077.88;5040219;28;45425;-82
2022/02/12 01:51:02;;;;;;;;;37.50;34.00;;;;;4.94;63.56;103077.72;5040619;28;45244;-81
2022/02/12 01:53:27;;;;;;;;;35.00;32.50;;;;;4.95;63.41;103064.75;5040712;28;45241;-82
2022/02/12 01:55:54;;;;;;;;;38.25;30.25;;;;;4.97;63.36;103064.78;5040294;28;45398;-81
2022/02/12 01:58:20;;;;;;;;;35.00;33.75;;;;;4.94;63.48;103068.19;5035224;28;45469;-82
2022/02/12 02:00:45;;;;;;;;;36.75;32.25;;;;;4.94;63.45;103064.69;5039053;28;45477;-82
2022/02/12 02:03:13;;;;;;;;;35.75;33.25;;;;;4.94;63.43;103062.97;5039924;28;45410;-82
2022/02/12 02:05:38;;;;;;;;;40.25;33.50;;;;;4.90;63.31;103053.31;5033148;28;45491;-82
2022/02/12 02:08:05;;;;;;;;;35.50;31.50;;;;;4.90;63.44;103050.69;5040673;28;46251;-83
2022/02/12 02:10:30;;;;;;;;;40.75;31.75;;;;;4.91;63.01;103049.88;5041764;28;45799;-83
2022/02/12 02:12:55;;;;;;;;;37.00;31.25;;;;;4.89;63.32;103048.91;5039760;28;45553;-82
2022/02/12 02:15:21;;;;;;;;;37.75;30.00;;;;;4.90;63.52;103045.47;5027621;28;45375;-83
2022/02/12 02:17:46;;;;;;;;;30.25;28.25;;;;;4.91;63.43;103041.16;5037265;28;45508;-83
2022/02/12 02:20:12;;;;;;;;;28.00;27.50;;;;;4.91;63.29;103026.41;5033010;28;45362;-83
2022/02/12 02:22:46;;;;;;;;;34.25;29.75;;;;;4.94;63.38;103028.19;5037172;28;45149;-83
2022/02/12 02:25:11;;;;;;;;;33.00;28.25;;;;;4.92;63.31;103015.13;5035134;28;45491;-84
2022/02/12 02:27:36;;;;;;;;;30.25;26.50;;;;;4.94;63.50;103017.75;5039152;28;46105;-83
2022/02/12 02:30:02;;;;;;;;;30.00;26.75;;;;;4.94;63.38;103016.06;5039522;28;45267;-83
2022/02/12 02:32:28;;;;;;;;;30.00;26.50;;;;;4.98;63.37;103010.94;5040071;28;45221;-84
2022/02/12 02:34:55;;;;;;;;;28.75;25.25;;;;;5.01;63.28;103008.41;5021557;28;46392;-85
2022/02/12 02:37:22;;;;;;;;;31.50;27.50;;;;;5.01;63.52;103003.19;5039976;28;45237;-85
2022/02/12 02:39:47;;;;;;;;;26.00;25.00;;;;;5.00;63.36;103001.41;5038776;28;45538;-83
2022/02/12 02:42:13;;;;;;;;;33.00;28.50;;;;;5.02;63.42;103003.22;5039546;28;45271;-85
2022/02/12 02:44:38;;;;;;;;;32.50;27.75;;;;;5.02;62.95;103000.63;5037922;28;46299;-85
2022/02/12 02:47:32;;;;;;;;;29.75;27.00;;;;;5.01;63.29;102998.84;5038066;28;46137;-84
2022/02/12 02:49:49;;;;;;;;;31.25;26.00;;;;;5.00;63.15;102986.66;5035743;28;45348;-85
2022/02/12 02:57:50;;;;;;;;;29.50;27.75;;;;;5.00;63.12;102976.25;5008424;28;45495;-82
2022/02/12 03:00:16;;;;;;;;;31.00;28.75;;;;;4.98;62.94;102972.72;5038358;28;45411;-83
2022/02/12 03:02:42;;;;;;;;;38.00;30.00;;;;;5.00;63.07;102970.16;5033361;28;45171;-83
2022/02/12 03:05:07;;;;;;;;;29.75;27.25;;;;;4.99;62.67;102963.19;5039536;28;45470;-83
2022/02/12 03:07:33;;;;;;;;;38.00;28.25;;;;;4.97;62.75;102957.03;5026971;28;46521;-83
2022/02/12 03:09:58;;;;;;;;;35.25;31.75;;;;;4.95;62.68;102957.88;5038470;28;45338;-82
2022/02/12 03:12:24;;;;;;;;;33.75;31.50;;;;;4.98;63.27;102954.47;5047101;28;45674;-82
2022/02/12 03:14:50;;;;;;;;;39.00;35.50;;;;;4.94;62.83;102950.88;5038511;28;45413;-83
2022/02/12 03:17:15;;;;;;;;;31.75;29.75;;;;;4.93;63.14;102943.94;5036841;28;45397;-84
2022/02/12 03:19:41;;;;;;;;;36.25;31.25;;;;;4.93;62.86;102945.66;5033929;28;45667;-86
2022/02/12 03:22:06;;;;;;;;;36.75;30.75;;;;;4.90;63.01;102942.94;5039282;28;45419;-85
2022/02/12 03:24:31;;;;;;;;;33.00;30.25;;;;;4.90;62.87;102935.13;5018072;28;45920;-83
2022/02/12 03:26:57;;;;;;;;;37.50;32.25;;;;;4.88;63.05;102939.44;5037740;28;45433;-85
2022/02/12 03:29:22;;;;;;;;;49.25;37.75;;;;;4.84;62.78;102922.81;5033127;28;45414;-83
2022/02/12 03:31:48;;;;;;;;;39.75;35.50;;;;;4.82;62.74;102927.09;5036568;28;45365;-89
2022/02/12 03:34:14;;;;;;;;;43.25;36.25;;;;;4.79;63.55;102927.91;5039373;28;45590;-87
2022/02/12 03:36:39;;;;;;;;;38.25;35.75;;;;;4.78;63.47;102927.88;5038690;28;46231;-85
2022/02/12 03:39:05;;;;;;;;;42.50;38.00;;;;;4.76;62.96;102919.13;5042289;28;45219;-87
2022/02/12 03:41:30;;;;;;;;;45.50;37.75;;;;;4.72;63.47;102915.56;5024689;28;45481;-88
2022/02/12 03:43:55;;;;;;;;;43.75;38.00;;;;;4.71;63.27;102919.91;5042699;28;45214;-88
2022/02/12 03:46:21;;;;;;;;;43.50;38.75;;;;;4.70;63.51;102919.84;5042583;28;45759;-88
2022/02/12 03:48:47;;;;;;;;;39.00;35.50;;;;;4.68;63.50;102918.94;5038210;28;45465;-87
2022/02/12 03:51:12;;;;;;;;;44.00;37.75;;;;;4.65;63.35;102914.50;5042489;28;45414;-84
2022/02/12 03:53:37;;;;;;;;;51.25;40.00;;;;;4.62;63.41;102914.41;5042929;28;45359;-84
2022/02/12 03:56:03;;;;;;;;;45.50;38.00;;;;;4.60;63.50;102918.72;5042482;28;45373;-83
2022/02/12 03:58:28;;;;;;;;;39.75;35.75;;;;;4.57;63.17;102910.81;5040139;28;45394;-86
2022/02/12 04:00:54;;;;;;;;;43.50;36.75;;;;;4.56;63.46;102906.44;5042804;28;45387;-86
2022/02/12 04:03:20;;;;;;;;;38.50;36.00;;;;;4.52;63.10;102905.47;5024701;28;46564;-87
2022/02/12 04:05:46;;;;;;;;;52.75;39.00;;;;;4.48;63.19;102893.22;5042742;28;46316;-88
2022/02/12 04:08:18;;;;;;;;;48.25;38.25;;;;;4.46;63.50;102892.28;5037436;28;45403;-89
2022/02/12 04:10:45;;;;;;;;;51.00;39.00;;;;;4.46;63.51;102892.28;5028808;28;45354;-88
2022/02/12 04:13:10;;;;;;;;;44.50;36.50;;;;;4.45;63.41;102887.91;5045691;28;45597;-88
2022/02/12 04:15:35;;;;;;;;;48.50;39.00;;;;;4.43;63.53;102887.00;5041750;28;45412;-85
2022/02/12 04:18:02;;;;;;;;;49.25;39.50;;;;;4.40;63.59;102879.97;5030688;28;45526;-86
2022/02/12 04:20:27;;;;;;;;;40.75;34.50;;;;;4.40;63.54;102879.97;5039968;28;45405;-88
2022/02/12 04:22:53;;;;;;;;;37.25;35.75;;;;;4.41;63.58;102873.06;5040455;28;46184;-88
2022/02/12 04:25:20;;;;;;;;;35.25;31.50;;;;;4.43;63.32;102868.75;5024060;28;46344;-91
2022/02/12 04:27:46;;;;;;;;;40.50;34.50;;;;;4.38;63.25;102855.63;5023359;28;45816;-88
2022/02/12 04:30:14;;;;;;;;;32.25;28.25;;;;;4.43;63.39;102861.84;5042134;28;45259;-89
2022/02/12 04:32:40;;;;;;;;;34.25;29.25;;;;;4.44;63.72;102862.72;5041999;28;45453;-89
2022/02/12 04:35:07;;;;;;;;;36.75;30.75;;;;;4.44;63.77;102860.13;5041746;28;45515;-90
2022/02/12 04:37:33;;;;;;;;;32.50;31.00;;;;;4.42;63.74;102854.84;5023518;28;45318;-89
2022/02/12 04:39:59;;;;;;;;;35.50;27.50;;;;;4.43;63.26;102855.75;5016655;28;45278;-90
2022/02/12 04:42:25;;;;;;;;;32.25;27.25;;;;;4.38;63.46;102855.63;5023944;28;46735;-91
2022/02/12 04:44:52;;;;;;;;;29.25;27.50;;;;;4.38;63.62;102853.91;5042265;28;46436;-91
2022/02/12 04:47:19;;;;;;;;;28.25;25.25;;;;;4.36;63.32;102846.88;5023109;28;46038;-83
2022/02/12 04:49:46;;;;;;;;;31.75;26.75;;;;;4.32;63.39;102839.84;5030625;28;45430;-83
2022/02/12 04:52:14;;;;;;;;;28.75;25.00;;;;;4.33;63.54;102849.41;5039120;28;45851;-82
2022/02/12 04:54:40;;;;;;;;;26.50;24.50;;;;;4.33;63.56;102850.28;5041871;28;45591;-82
2022/02/12 04:57:06;;;;;;;;;26.00;23.00;;;;;4.31;63.31;102843.28;5040756;28;45478;-82
2022/02/12 04:59:32;;;;;;;;;22.50;19.00;;;;;4.30;63.60;102852.81;5029046;28;45264;-82
2022/02/12 05:01:57;;;;;;;;;27.75;25.75;;;;;4.30;63.50;102854.53;5041275;28;47103;-82
2022/02/12 05:04:23;;;;;;;;;25.25;21.25;;;;;4.27;63.45;102850.13;5041784;28;45408;-81
2022/02/12 05:06:49;;;;;;;;;23.25;21.50;;;;;4.26;63.06;102846.63;5040752;28;45348;-81
2022/02/12 05:09:15;;;;;;;;;25.75;23.00;;;;;4.24;63.43;102848.31;5041270;28;45374;-81
2022/02/12 05:11:41;;;;;;;;;23.25;22.00;;;;;4.26;63.34;102853.56;5046831;28;45515;-82
2022/02/12 05:14:07;;;;;;;;;23.00;20.00;;;;;4.21;62.87;102843.03;5040738;28;46453;-82
2022/02/12 05:16:33;;;;;;;;;21.25;21.25;;;;;4.22;63.44;102847.38;5038526;28;45203;-81
2022/02/12 05:18:58;;;;;;;;;19.00;18.75;;;;;4.21;63.56;102843.03;5041164;28;46002;-82
2022/02/12 05:21:24;;;;;;;;;26.25;23.75;;;;;4.18;63.36;102836.84;5036659;28;45522;-82
2022/02/12 05:23:49;;;;;;;;;23.50;23.00;;;;;4.17;63.79;102835.97;5035832;28;45403;-81
2022/02/12 05:26:16;;;;;;;;;20.50;17.75;;;;;4.15;63.65;102835.91;5040835;28;45272;-81
2022/02/12 05:28:42;;;;;;;;;22.50;19.25;;;;;4.13;63.17;102824.59;5040245;28;45482;-83
2022/02/12 05:31:08;;;;;;;;;24.75;18.75;;;;;4.15;63.46;102837.63;5016853;28;46812;-83
2022/02/12 05:33:37;;;;;;;;;20.50;18.00;;;;;4.12;63.13;102832.34;5040973;28;45347;-82
2022/02/12 05:36:10;;;;;;;;;21.75;16.75;;;;;4.10;63.86;102828.84;5040776;28;45888;-82
2022/02/12 05:38:39;;;;;;;;;27.75;22.00;;;;;4.10;63.55;102821.03;5031784;28;45472;-81
2022/02/12 05:41:14;;;;;;;;;22.25;19.00;;;;;4.10;63.63;102818.44;5039122;28;45518;-82
2022/02/12 05:43:40;;;;;;;;;18.00;16.00;;;;;4.10;63.55;102826.22;5040857;28;45301;-83
2022/02/12 05:46:07;;;;;;;;;20.00;18.00;;;;;4.07;63.64;102818.34;5040085;28;45571;-82
2022/02/12 05:48:34;;;;;;;;;20.75;19.00;;;;;4.02;63.52;102813.88;5032330;28;45523;-82
2022/02/12 05:51:00;;;;;;;;;19.25;17.75;;;;;4.02;63.62;102811.28;5037829;28;45379;-81
2022/02/12 05:53:25;;;;;;;;;23.25;19.50;;;;;3.98;63.73;102804.22;5040859;28;45439;-80
2022/02/12 05:55:51;;;;;;;;;13.25;13.25;;;;;3.96;63.45;102797.19;5040789;28;45394;-80
2022/02/12 05:58:16;;;;;;;;;17.25;17.25;;;;;3.94;63.69;102795.44;5039118;28;45510;-83
2022/02/12 06:00:42;;;;;;;;;18.50;18.50;;;;;3.93;63.81;102790.19;5027228;28;45467;-84
2022/02/12 06:03:07;;;;;;;;;20.25;17.75;;;;;3.93;63.60;102791.06;5040662;28;45293;-84
2022/02/12 06:05:33;;;;;;;;;20.25;17.00;;;;;3.91;64.08;102794.47;5040514;28;45201;-84
2022/02/12 06:08:04;;;;;;;;;17.25;17.00;;;;;3.88;63.89;102781.38;5037198;28;45232;-84
2022/02/12 06:10:31;;;;;;;;;18.75;17.75;;;;;3.86;63.44;102777.84;5035917;28;45340;-82
2022/02/12 06:12:56;;;;;;;;;23.00;19.00;;;;;3.83;63.84;102782.13;5040209;28;45556;-83
2022/02/12 06:15:22;;;;;;;;;17.50;16.00;;;;;3.80;63.66;102776.81;5040565;28;45412;-84
2022/02/12 06:17:48;;;;;;;;;20.00;18.00;;;;;3.83;63.74;102778.63;5039415;28;45385;-85
2022/02/12 06:20:14;;;;;;;;;18.25;14.25;;;;;3.79;63.45;102772.47;5022167;28;46636;-85
2022/02/12 06:22:39;;;;;;;;;17.00;15.50;;;;;3.77;63.61;102778.47;5040092;28;46101;-85
2022/02/12 06:25:06;;;;;;;;;21.75;17.00;;;;;3.74;63.48;102771.47;5040379;28;45374;-84
2022/02/12 06:27:31;;;;;;;;;23.50;20.75;;;;;3.72;63.74;102775.75;5027720;28;45521;-84
2022/02/12 06:29:57;;;;;;;;;19.50;18.75;;;;;3.67;63.59;102770.41;5039959;28;45408;-82
2022/02/12 06:32:22;;;;;;;;;18.00;18.00;;;;;3.65;63.49;102773.81;5040249;28;46145;-86
2022/02/12 06:34:50;;;;;;;;;18.25;16.75;;;;;3.61;63.31;102775.41;5022193;28;45388;-87
2022/02/12 06:37:16;;;;;;;;;17.00;17.00;;;;;3.60;63.95;102773.66;5011541;28;45594;-82
2022/02/12 06:39:42;;;;;;;;;14.75;14.75;;;;;3.57;63.38;102764.06;5039638;28;45584;-82
2022/02/12 06:42:07;;;;;;;;;14.00;13.25;;;;;3.54;63.58;102766.56;5040114;28;46270;-81
2022/02/12 06:44:32;;;;;;;;;19.50;16.25;;;;;3.54;63.44;102768.28;5039628;28;45209;-88
2022/02/12 06:46:58;;;;;;;;;23.75;20.50;;;;;3.51;63.39;102768.22;5035283;28;45420;-86
2022/02/12 06:49:23;;;;;;;;;20.75;17.50;;;;;3.50;63.79;102767.31;5021615;28;45518;-86
2022/02/12 06:51:48;;;;;;;;;22.00;22.00;;;;;3.43;63.79;102758.44;5039116;28;45259;-85
2022/02/12 06:54:14;;;;;;;;;27.50;21.75;;;;;3.41;63.92;102773.09;5038602;28;45395;-82
2022/02/12 06:56:39;;;;;;;;;22.75;17.25;;;;;3.40;63.90;102762.66;5034040;28;45440;-83
2022/02/12 06:59:05;;;;;;;;;17.50;15.50;;;;;3.42;64.30;102767.09;5033947;28;45484;-85
2022/02/12 07:01:30;;;;;;;;;22.25;21.25;;;;;3.36;63.40;102767.78;5026558;28;47802;-82
2022/02/12 07:03:56;;;;;;;;;21.75;17.00;;;;;3.34;63.72;102761.66;5039875;28;45382;-82
2022/02/12 07:06:24;;;;;;;;;26.00;19.25;;;;;3.32;63.69;102757.22;5039890;28;45216;-82
2022/02/12 07:08:50;;;;;;;;;24.00;21.50;;;;;3.29;63.97;102755.41;5039374;28;46029;-83
2022/02/12 07:11:16;;;;;;;;;22.00;20.75;;;;;3.29;63.60;102775.34;5048157;28;45503;-81
2022/02/12 07:13:41;;;;;;;;;21.50;21.00;;;;;3.26;63.80;102766.59;5042443;28;45489;-83
2022/02/12 07:16:06;;;;;;;;;23.00;21.50;;;;;3.25;63.97;102767.47;5039286;28;45425;-84
2022/02/12 07:18:32;;;;;;;;;28.50;21.25;;;;;3.27;64.32;102772.69;5041539;28;45344;-85
2022/02/12 07:20:57;;;;;;;;;29.75;23.75;;;;;3.25;64.41;102774.38;5039627;28;46054;-85
2022/02/12 07:23:23;;;;;;;;;29.75;29.75;;;;;3.25;64.01;102770.06;5039401;28;45258;-82
2022/02/12 07:25:48;;;;;;;;;31.75;26.75;;;;;3.22;64.10;102767.34;5039396;28;45267;-82
2022/02/12 07:28:14;;;;;;;;;32.00;27.75;;;;;3.24;64.80;102770.00;5039047;28;45395;-82
2022/02/12 07:30:41;;;;;;;;;37.00;28.50;;;;;3.23;64.21;102765.66;5039258;28;45252;-80
2022/02/12 07:33:06;;;;;;;;;31.25;29.00;;;;;3.24;64.57;102757.00;5039107;28;45215;-80
2022/02/12 07:35:32;;;;;;;;;29.75;27.25;;;;;3.24;64.21;102770.88;5039423;28;45550;-80
2022/02/12 07:37:57;;;;;;;;;33.50;28.75;;;;;3.24;64.44;102767.38;5039258;28;45521;-80
2022/02/12 07:40:23;;;;;;;;;30.50;28.25;;;;;3.21;64.18;102765.56;5039120;28;45453;-80
2022/02/12 07:42:49;;;;;;;;;25.00;25.00;;;;;3.22;64.21;102764.75;5038717;28;45421;-80
2022/02/12 07:45:16;;;;;;;;;32.25;27.50;;;;;3.23;64.98;102760.44;5039290;28;45481;-81
2022/02/12 07:47:42;;;;;;;;;29.00;27.00;;;;;3.23;64.68;102765.66;5039360;28;45384;-81
2022/02/12 07:50:10;;;;;;;;;30.00;27.00;;;;;3.22;65.01;102761.28;5038544;28;45342;-80
2022/02/12 07:52:36;;;;;;;;;32.50;27.25;;;;;3.25;64.39;102763.97;5039485;28;45794;-80
2022/02/12 07:55:02;;;;;;;;;26.50;21.75;;;;;3.28;64.71;102773.59;5038941;28;45477;-81
2022/02/12 07:57:27;;;;;;;;;26.75;23.25;;;;;3.29;64.63;102781.41;5039137;28;45266;-81
2022/02/12 07:59:53;;;;;;;;;26.00;21.25;;;;;3.31;64.34;102774.53;5038584;28;46370;-81
2022/02/12 08:02:19;;;;;;;;;23.50;18.00;;;;;3.32;64.99;102765.03;5039174;28;45340;-81
2022/02/12 08:04:44;;;;;;;;;23.00;19.75;;;;;3.33;65.04;102772.00;5038430;28;45730;-81
2022/02/12 08:07:28;;;;;;;;;27.25;18.00;;;;;3.34;65.34;102765.97;5038568;28;45505;-81
2022/02/12 08:12:55;;;;;;;;;30.00;25.75;;;;;3.40;64.76;102767.88;5032735;28;45415;-81
2022/02/12 08:15:21;;;;;;;;;26.00;23.00;;;;;3.43;65.48;102771.44;5039342;28;45515;-81
2022/02/12 08:17:47;;;;;;;;;28.25;24.75;;;;;3.48;65.06;102780.25;5038623;28;45496;-82
2022/02/12 08:20:13;;;;;;;;;29.00;19.50;;;;;3.52;64.96;102778.63;5038067;28;45450;-82
2022/02/12 08:22:38;;;;;;;;;25.50;22.00;;;;;3.54;64.69;102766.56;5038656;28;45562;-82
2022/02/12 08:25:04;;;;;;;;;24.75;21.75;;;;;3.60;65.26;102776.28;5022973;28;45442;-82
2022/02/12 08:27:30;;;;;;;;;29.75;26.75;;;;;3.62;64.60;102779.78;5042006;28;45269;-82
2022/02/12 08:29:55;;;;;;;;;27.00;22.50;;;;;3.64;64.40;102761.63;5040723;28;46750;-83
2022/02/12 08:32:23;;;;;;;;;30.00;22.25;;;;;3.65;64.46;102761.69;5033475;28;45898;-82
2022/02/12 08:34:49;;;;;;;;;17.50;15.75;;;;;3.69;64.47;102766.13;5041283;28;45424;-81
2022/02/12 08:37:15;;;;;;;;;24.25;19.75;;;;;3.73;64.12;102761.88;5040911;28;45490;-81
2022/02/12 08:39:40;;;;;;;;;21.25;18.00;;;;;3.77;64.90;102757.66;5041630;28;46217;-82
2022/02/12 08:42:07;;;;;;;;;27.50;23.00;;;;;3.79;64.22;102756.88;5041772;28;45395;-81
2022/02/12 08:44:35;;;;;;;;;29.25;18.50;;;;;3.84;64.22;102759.59;5040192;28;45450;-82
2022/02/12 08:47:02;;;;;;;;;32.00;24.00;;;;;3.89;64.17;102765.81;5038387;28;45278;-83
2022/02/12 08:49:28;;;;;;;;;25.25;20.00;;;;;3.92;64.22;102767.63;5041148;28;46408;-83
2022/02/12 08:51:54;;;;;;;;;23.50;23.50;;;;;3.93;64.09;102753.75;5041833;28;45460;-83
2022/02/12 08:54:19;;;;;;;;;26.00;21.50;;;;;3.99;64.56;102759.16;5023129;28;45436;-82
2022/02/12 08:56:45;;;;;;;;;25.25;22.50;;;;;4.01;64.07;102757.47;5041962;28;45372;-82
2022/02/12 08:59:11;;;;;;;;;32.75;25.00;;;;;4.07;64.76;102761.97;5041388;28;46179;-83
2022/02/12 09:01:37;;;;;;;;;28.00;24.00;;;;;4.14;64.90;102755.19;5033949;28;45423;-83
2022/02/12 09:04:08;;;;;;;;;33.50;31.00;;;;;4.18;64.14;102750.94;5040732;28;45379;-82
2022/02/12 09:06:34;;;;;;;;;32.50;28.50;;;;;4.22;64.17;102745.00;5038999;28;45350;-82
2022/02/12 09:09:01;;;;;;;;;31.25;27.75;;;;;4.27;64.11;102743.38;5023052;28;46801;-82
2022/02/12 09:11:26;;;;;;;;;34.00;30.25;;;;;4.32;63.97;102741.75;5036698;28;45494;-82
2022/02/12 09:13:53;;;;;;;;;36.75;28.25;;;;;4.35;63.81;102743.56;5035442;28;45458;-83
2022/02/12 09:16:20;;;;;;;;;33.25;31.00;;;;;4.43;64.14;102742.03;5041467;28;45388;-82
2022/02/12 09:18:46;;;;;;;;;33.25;31.25;;;;;4.44;63.99;102730.81;5041251;28;45316;-82
2022/02/12 09:21:12;;;;;;;;;36.75;28.50;;;;;4.50;63.79;102725.72;5015578;28;45869;-82
2022/02/12 09:23:38;;;;;;;;;31.25;28.00;;;;;4.54;63.61;102720.59;5041444;28;45308;-82
2022/02/12 09:26:03;;;;;;;;;29.25;23.00;;;;;4.59;63.51;102721.59;5041522;28;45264;-83
2022/02/12 09:28:29;;;;;;;;;31.25;26.50;;;;;4.62;63.21;102713.84;5041059;28;46507;-82
2022/02/12 09:30:54;;;;;;;;;27.25;24.75;;;;;4.68;63.29;102714.00;5038303;28;45340;-82
2022/02/12 09:33:20;;;;;;;;;32.25;27.00;;;;;4.75;63.21;102721.94;5028290;28;45511;-82
2022/02/12 09:35:50;;;;;;;;;32.25;27.75;;;;;4.79;63.02;102705.56;5040519;28;45226;-82
2022/02/12 09:38:15;;;;;;;;;35.50;29.25;;;;;4.86;63.36;102702.25;5031808;28;45670;-82
2022/02/12 09:40:41;;;;;;;;;25.75;25.75;;;;;4.89;63.32;102712.72;5041286;28;45357;-82
2022/02/12 09:43:07;;;;;;;;;29.00;25.75;;;;;4.95;62.61;102706.78;5041027;28;45427;-83
2022/02/12 09:45:42;;;;;;;;;28.50;24.00;;;;;5.00;62.99;102705.16;5037890;28;45496;-83
2022/02/12 09:48:10;;;;;;;;;29.75;26.00;;;;;5.04;62.82;102695.66;5040337;28;45351;-82
2022/02/12 09:50:38;;;;;;;;;25.00;20.75;;;;;5.14;62.74;102700.25;5022896;28;45327;-83
2022/02/12 09:53:03;;;;;;;;;25.75;20.00;;;;;5.18;62.61;102699.44;5041249;28;45357;-83
2022/02/12 09:55:31;;;;;;;;;27.25;23.00;;;;;5.24;62.19;102698.72;5022996;28;45972;-82
2022/02/12 09:57:58;;;;;;;;;21.00;20.00;;;;;5.30;62.01;102692.75;5039978;28;45504;-83
2022/02/12 10:00:23;;;;;;;;;19.00;17.00;;;;;5.32;62.01;102696.28;5040928;28;45805;-82
2022/02/12 10:02:49;;;;;;;;;22.25;16.75;;;;;5.41;61.69;102695.56;5037481;28;45475;-82
2022/02/12 10:05:19;;;;;;;;;23.25;19.00;;;;;5.43;61.77;102687.81;5040652;28;45364;-83
2022/02/12 10:07:48;;;;;;;;;19.75;18.25;;;;;5.48;61.60;102686.16;5040811;28;46562;-83
2022/02/12 10:10:15;;;;;;;;;21.25;17.00;;;;;5.52;61.32;102687.97;5034861;28;45318;-83
2022/02/12 10:12:41;;;;;;;;;17.75;16.75;;;;;5.57;61.36;102685.47;5034059;28;45193;-82
2022/02/12 10:15:36;;;;;;;;;23.50;17.00;;;;;5.64;61.10;102676.91;5040393;28;45219;-83
2022/02/12 10:18:02;;;;;;;;;21.00;16.25;;;;;5.68;60.53;102675.25;5013804;28;46215;-84
2022/02/12 10:20:32;;;;;;;;;18.50;16.25;;;;;5.72;60.38;102666.63;5040403;28;45539;-84
2022/02/12 10:23:19;;;;;;;;;21.00;17.50;;;;;5.76;59.92;102665.81;5040786;28;45261;-84
2022/02/12 10:25:46;;;;;;;;;14.75;13.25;;;;;5.80;60.29;102666.75;5040516;28;45459;-83
2022/02/12 10:28:14;;;;;;;;;17.50;14.25;;;;;5.83;59.93;102654.63;5039897;28;46253;-84
2022/02/12 10:30:42;;;;;;;;;29.50;18.00;;;;;5.88;59.14;102654.72;5021805;28;45849;-83
2022/02/12 10:33:08;;;;;;;;;21.00;17.50;;;;;5.92;59.65;102664.38;5040385;28;45245;-84
2022/02/12 10:35:36;;;;;;;;;18.50;17.00;;;;;5.95;59.41;102650.50;5040155;28;45387;-84
2022/02/12 10:38:04;;;;;;;;;22.00;19.50;;;;;6.02;59.50;102635.81;5031665;28;45367;-83
2022/02/12 10:40:31;;;;;;;;;21.50;16.25;;;;;6.08;59.44;102636.81;5029916;28;45385;-83
2022/02/12 10:42:58;;;;;;;;;17.00;14.00;;;;;6.13;58.56;102628.19;5038569;28;45387;-83
2022/02/12 10:45:26;;;;;;;;;14.75;14.75;;;;;6.20;58.89;102635.25;5039999;28;45436;-83
2022/02/12 10:47:53;;;;;;;;;13.50;13.25;;;;;6.23;58.51;102624.88;5038348;28;46128;-84
2022/02/12 10:50:20;;;;;;;;;19.00;14.50;;;;;6.29;58.65;102621.47;5038538;28;45365;-83
2022/02/12 10:52:51;;;;;;;;;16.25;12.75;;;;;6.31;57.72;102619.78;5034289;28;45342;-84
2022/02/12 10:55:31;;;;;;;;;16.50;14.50;;;;;6.36;58.03;102619.84;5016343;28;46493;-84
2022/02/12 10:57:59;;;;;;;;;14.25;12.75;;;;;6.38;58.25;102613.78;5038056;28;45900;-84
2022/02/12 11:00:26;;;;;;;;;14.25;13.00;;;;;6.46;58.08;102615.63;5039781;28;45168;-84
2022/02/12 11:02:53;;;;;;;;;11.00;11.00;;;;;6.50;57.59;102613.06;5033597;28;45728;-85
2022/02/12 11:05:21;;;;;;;;;17.00;12.75;;;;;6.55;57.22;102604.41;5026303;28;45415;-84
2022/02/12 11:07:47;;;;;;;;;13.00;13.00;;;;;6.58;57.63;102605.34;5021432;28;47457;-84
2022/02/12 11:10:14;;;;;;;;;18.25;13.50;;;;;6.64;57.56;102597.59;5036625;28;45796;-85
2022/02/12 11:12:40;;;;;;;;;15.25;13.25;;;;;6.70;57.15;102604.63;5051683;28;45323;-84
2022/02/12 11:15:07;;;;;;;;;20.25;14.00;;;;;6.73;57.27;102596.84;5038025;28;46329;-84
2022/02/12 11:17:34;;;;;;;;;16.25;13.25;;;;;6.77;56.13;102587.28;5039217;28;46378;-84
2022/02/12 11:20:01;;;;;;;;;21.00;18.25;;;;;6.82;56.86;102588.25;5037027;28;45822;-84
2022/02/12 11:22:27;;;;;;;;;14.50;12.50;;;;;6.89;56.27;102583.09;5029456;28;45431;-85